createdAt,value
2019-04-21T00:00:15.111Z,3.07
2019-04-21T00:02:44.284Z,3.33
2019-04-21T00:05:49.599Z,3.20
2019-04-21T00:08:10.766Z,3.83
2019-04-21T00:10:36.492Z,3.53
2019-04-21T00:12:56.159Z,3.50
2019-04-21T00:15:24.474Z,3.53
2019-04-21T00:17:50.898Z,3.30
2019-04-21T00:20:26.623Z,3.57
2019-04-21T00:23:00.223Z,4.20
2019-04-21T00:25:32.286Z,3.40
2019-04-21T00:28:09.346Z,3.57
2019-04-21T00:30:41.216Z,3.50
2019-04-21T00:33:00.181Z,3.07
2019-04-21T00:35:25.825Z,3.40
2019-04-21T00:38:14.643Z,3.20
2019-04-21T00:40:41.514Z,3.13
2019-04-21T00:43:07.807Z,3.10
2019-04-21T00:45:36.244Z,3.27
2019-04-21T00:48:19.194Z,3.30
2019-04-21T00:50:51.768Z,3.53
2019-04-21T00:53:32.157Z,3.53
2019-04-21T00:56:00.106Z,3.13
2019-04-21T00:58:28.015Z,3.37
2019-04-21T01:00:58.089Z,3.13
2019-04-21T01:03:47.385Z,3.30
2019-04-21T01:05:57.621Z,3.30
2019-04-21T01:08:25.130Z,3.30
2019-04-21T01:10:51.441Z,3.23
2019-04-21T01:13:32.793Z,3.33
2019-04-21T01:16:03.349Z,2.90
2019-04-21T01:18:33.206Z,3.53
2019-04-21T01:20:39.767Z,2.80
2019-04-21T01:23:08.701Z,3.27
2019-04-21T01:25:44.854Z,3.60
2019-04-21T01:28:25.822Z,3.13
2019-04-21T01:30:58.257Z,3.27
2019-04-21T01:33:33.415Z,2.70
2019-04-21T01:35:58.373Z,3.23
2019-04-21T01:38:35.306Z,3.03
2019-04-21T01:41:08.655Z,2.80
2019-04-21T01:43:28.143Z,3.07
2019-04-21T01:46:04.454Z,2.60
2019-04-21T01:48:27.376Z,2.90
2019-04-21T01:50:56.823Z,3.07
2019-04-21T01:53:57.956Z,3.13
2019-04-21T01:56:38.693Z,2.80
2019-04-21T01:59:02.727Z,2.60
2019-04-21T02:01:46.081Z,3.30
2019-04-21T02:04:20.787Z,3.17
2019-04-21T02:06:45.668Z,3.20
2019-04-21T02:09:15.246Z,2.93
2019-04-21T02:11:50.668Z,3.20
2019-04-21T02:14:18.579Z,2.83
2019-04-21T02:16:47.766Z,3.20
2019-04-21T02:19:12.569Z,3.10
2019-04-21T02:21:39.237Z,2.93
2019-04-21T02:24:31.633Z,3.30
2019-04-21T02:26:47.391Z,3.37
2019-04-21T02:29:22.988Z,3.40
2019-04-21T02:32:07.944Z,3.33
2019-04-21T02:34:37.438Z,3.03
2019-04-21T02:37:17.726Z,3.13
2019-04-21T02:39:35.571Z,3.33
2019-04-21T02:44:37.435Z,3.57
2019-04-21T02:47:09.551Z,3.30
2019-04-21T02:54:49.702Z,3.20
2019-04-21T02:57:09.569Z,3.40
2019-04-21T02:59:49.426Z,3.27
2019-04-21T03:02:55.368Z,3.53
2019-04-21T03:05:31.099Z,3.10
2019-04-21T03:13:07.804Z,3.57
2019-04-21T03:15:31.200Z,4.53
2019-04-21T03:20:39.882Z,3.20
2019-04-21T03:28:14.309Z,3.30
2019-04-21T03:31:01.867Z,3.67
2019-04-21T03:33:53.018Z,4.70
2019-04-21T03:38:14.010Z,4.17
2019-04-21T03:40:33.152Z,3.40
2019-04-21T03:43:10.467Z,4.07
2019-04-21T03:45:44.470Z,3.83
2019-04-21T03:48:02.810Z,3.73
2019-04-21T03:53:03.807Z,3.90
2019-04-21T03:58:19.530Z,4.30
2019-04-21T04:04:27.844Z,4.30
2019-04-21T04:07:11.135Z,3.67
2019-04-21T04:12:05.253Z,3.67
2019-04-21T04:19:40.013Z,4.47
2019-04-21T04:24:49.856Z,7.73
2019-04-21T04:27:22.574Z,8.53
2019-04-21T04:29:40.119Z,7.73
2019-04-21T04:32:14.505Z,7.83
2019-04-21T04:34:49.773Z,7.40
2019-04-21T04:42:45.947Z,7.73
2019-04-21T04:45:16.714Z,7.97
2019-04-21T04:47:52.358Z,7.47
2019-04-21T04:50:09.937Z,7.67
2019-04-21T04:52:44.482Z,8.43
2019-04-21T04:57:57.337Z,8.80
2019-04-21T05:00:21.384Z,7.53
2019-04-21T05:02:42.106Z,7.13
2019-04-21T05:05:26.779Z,7.10
2019-04-21T05:07:52.240Z,6.83
2019-04-21T05:10:17.328Z,7.50
2019-04-21T05:12:47.979Z,6.90
2019-04-21T05:15:11.535Z,6.90
2019-04-21T05:17:43.524Z,7.10
2019-04-21T05:20:17.005Z,7.00
2019-04-21T05:22:44.253Z,7.20
2019-04-21T05:25:05.685Z,6.50
2019-04-21T05:27:38.544Z,6.17
2019-04-21T05:30:26.734Z,6.07
2019-04-21T05:33:02.723Z,5.77
2019-04-21T05:35:51.927Z,5.20
2019-04-21T05:38:27.711Z,5.20
2019-04-21T05:40:52.829Z,5.17
2019-04-21T05:43:32.834Z,5.20
2019-04-21T05:46:19.078Z,5.40
2019-04-21T05:48:39.768Z,5.10
2019-04-21T05:51:03.679Z,4.87
2019-04-21T05:53:37.818Z,5.07
2019-04-21T05:56:12.495Z,4.90
2019-04-21T05:58:43.717Z,4.53
2019-04-21T06:06:20.296Z,4.53
2019-04-21T06:08:42.263Z,5.27
2019-04-21T06:11:21.019Z,4.33
2019-04-21T06:16:13.957Z,4.53
2019-04-21T06:18:52.956Z,4.67
2019-04-21T06:21:16.370Z,4.27
2019-04-21T06:23:47.778Z,4.63
2019-04-21T06:26:47.519Z,4.90
2019-04-21T06:29:02.984Z,5.07
2019-04-21T06:31:40.915Z,4.63
2019-04-21T06:33:52.009Z,5.00
2019-04-21T06:39:13.746Z,5.10
2019-04-21T06:41:34.311Z,5.07
2019-04-21T06:49:02.824Z,4.50
2019-04-21T06:51:38.454Z,5.43
2019-04-21T06:54:11.424Z,5.17
2019-04-21T06:56:41.257Z,6.13
2019-04-21T06:59:06.446Z,5.57
2019-04-21T07:01:42.483Z,5.23
2019-04-21T07:04:17.304Z,5.87
2019-04-21T07:06:42.650Z,5.40
2019-04-21T07:09:20.778Z,5.53
2019-04-21T07:11:36.683Z,5.33
2019-04-21T07:14:25.637Z,5.40
2019-04-21T07:16:49.712Z,5.40
2019-04-21T07:21:41.084Z,6.13
2019-04-21T07:24:17.185Z,6.07
2019-04-21T07:26:47.707Z,6.90
2019-04-21T07:29:16.557Z,7.13
2019-04-21T07:34:21.317Z,7.33
2019-04-21T07:36:52.465Z,7.27
2019-04-21T07:39:15.279Z,6.70
2019-04-21T07:41:47.011Z,5.37
2019-04-21T07:44:09.387Z,5.47
2019-04-21T07:46:38.616Z,5.57
2019-04-21T07:49:37.040Z,5.73
2019-04-21T07:52:22.156Z,5.63
2019-04-21T07:54:56.989Z,6.17
2019-04-21T07:57:19.050Z,5.83
2019-04-21T08:00:07.129Z,6.30
2019-04-21T08:02:27.462Z,6.00
2019-04-21T08:05:02.683Z,6.67
2019-04-21T08:07:30.743Z,6.60
2019-04-21T08:09:51.494Z,6.10
2019-04-21T08:12:19.736Z,5.90
2019-04-21T08:15:03.253Z,5.57
2019-04-21T08:17:24.587Z,5.17
2019-04-21T08:19:53.659Z,4.93
2019-04-21T08:22:33.496Z,4.60
2019-04-21T08:24:59.486Z,4.07
2019-04-21T08:27:36.759Z,4.87
2019-04-21T08:29:58.357Z,4.23
2019-04-21T08:32:39.505Z,4.50
2019-04-21T08:35:23.912Z,4.33
2019-04-21T08:37:31.399Z,3.90
2019-04-21T08:40:14.082Z,3.97
2019-04-21T08:42:36.415Z,3.83
2019-04-21T08:45:06.011Z,4.30
2019-04-21T08:47:33.304Z,5.13
2019-04-21T08:50:02.147Z,4.70
2019-04-21T08:55:18.380Z,4.40
2019-04-21T08:58:00.875Z,4.37
2019-04-21T09:00:32.520Z,5.00
2019-04-21T09:03:14.245Z,4.20
2019-04-21T09:05:42.611Z,4.40
2019-04-21T09:08:22.670Z,4.50
2019-04-21T09:10:47.368Z,5.07
2019-04-21T09:13:20.802Z,4.17
2019-04-21T09:15:47.415Z,4.53
2019-04-21T09:18:13.424Z,4.50
2019-04-21T09:20:52.165Z,4.33
2019-04-21T09:23:20.799Z,5.20
2019-04-21T09:25:52.955Z,4.20
2019-04-21T09:28:18.576Z,4.47
2019-04-21T09:30:39.584Z,5.27
2019-04-21T09:33:05.237Z,4.77
2019-04-21T09:35:33.521Z,5.33
2019-04-21T09:38:13.338Z,5.63
2019-04-21T09:40:37.157Z,4.90
2019-04-21T09:43:07.980Z,5.17
2019-04-21T09:45:33.482Z,5.37
2019-04-21T09:48:09.173Z,5.27
2019-04-21T09:50:34.961Z,5.70
2019-04-21T09:53:12.736Z,5.33
2019-04-21T09:55:43.984Z,5.43
2019-04-21T09:58:16.129Z,5.17
2019-04-21T10:00:46.141Z,5.20
2019-04-21T10:03:09.886Z,5.40
2019-04-21T10:05:36.098Z,4.50
2019-04-21T10:08:05.875Z,5.53
2019-04-21T10:10:36.333Z,5.03
2019-04-21T10:13:05.403Z,5.23
2019-04-21T10:15:35.402Z,4.70
2019-04-21T10:18:10.701Z,5.33
2019-04-21T10:20:40.649Z,4.23
2019-04-21T10:23:11.286Z,4.17
2019-04-21T10:25:40.998Z,4.10
2019-04-21T10:28:10.957Z,4.53
2019-04-21T10:30:40.717Z,4.23
2019-04-21T10:33:10.405Z,5.00
2019-04-21T10:35:39.434Z,4.43
2019-04-21T10:38:20.499Z,4.10
2019-04-21T10:40:39.456Z,4.90
2019-04-21T10:43:11.620Z,5.23
2019-04-21T10:45:39.207Z,5.30
2019-04-21T10:48:08.307Z,4.67
2019-04-21T10:50:37.103Z,4.60
2019-04-21T10:53:31.726Z,5.07
2019-04-21T10:56:12.254Z,4.40
2019-04-21T10:58:36.562Z,4.80
2019-04-21T11:01:31.498Z,4.67
2019-04-21T11:04:19.792Z,4.60
2019-04-21T11:06:38.799Z,5.20
2019-04-21T11:09:10.674Z,4.50
2019-04-21T11:11:40.009Z,5.27
2019-04-21T11:14:08.712Z,4.60
2019-04-21T11:16:37.455Z,4.53
2019-04-21T11:19:06.373Z,4.87
2019-04-21T11:21:35.185Z,4.93
2019-04-21T11:24:06.057Z,4.07
2019-04-21T11:26:35.930Z,4.07
2019-04-21T11:29:05.185Z,4.57
2019-04-21T11:31:33.985Z,4.83
2019-04-21T11:34:03.045Z,4.63
2019-04-21T11:36:33.206Z,4.60
2019-04-21T11:39:42.060Z,4.53
2019-04-21T11:42:10.131Z,4.17
2019-04-21T11:44:39.492Z,4.03
2019-04-21T11:47:10.489Z,4.60
2019-04-21T11:49:39.450Z,4.27
2019-04-21T11:52:09.166Z,4.10
2019-04-21T11:54:37.962Z,4.40
2019-04-21T11:57:12.371Z,4.73
2019-04-21T11:59:37.594Z,4.60
2019-04-21T12:02:07.721Z,4.67
2019-04-21T12:04:37.063Z,4.63
2019-04-21T12:07:07.198Z,4.03
2019-04-21T12:09:37.524Z,3.70
2019-04-21T12:12:07.500Z,3.93
2019-04-21T12:14:36.437Z,3.83
2019-04-21T12:17:05.843Z,3.63
2019-04-21T12:19:35.175Z,4.17
2019-04-21T12:22:11.328Z,4.10
2019-04-21T12:24:36.813Z,4.27
2019-04-21T12:27:05.962Z,3.83
2019-04-21T12:29:35.560Z,3.70
2019-04-21T12:32:30.526Z,4.00
2019-04-21T12:34:59.839Z,3.67
2019-04-21T12:37:28.924Z,3.80
2019-04-21T12:39:58.991Z,4.13
2019-04-21T12:42:28.094Z,3.67
2019-04-21T12:44:57.234Z,3.97
2019-04-21T12:47:26.151Z,3.70
2019-04-21T12:49:55.387Z,4.07
2019-04-21T12:52:24.186Z,4.00
2019-04-21T12:54:53.547Z,3.83
2019-04-21T12:57:23.448Z,3.93
2019-04-21T12:59:53.062Z,3.87
2019-04-21T13:02:22.584Z,3.63
2019-04-21T13:04:52.588Z,3.63
2019-04-21T13:07:21.739Z,3.63
2019-04-21T13:09:50.516Z,3.40
2019-04-21T13:12:19.412Z,4.07
2019-04-21T13:14:49.547Z,4.10
2019-04-21T13:17:19.469Z,3.73
2019-04-21T13:19:49.520Z,4.40
2019-04-21T13:22:18.963Z,3.83
2019-04-21T13:24:47.893Z,4.27
2019-04-21T13:27:17.738Z,4.30
2019-04-21T13:29:48.192Z,2.90
2019-04-21T13:32:18.170Z,4.00
2019-04-21T13:34:48.450Z,3.73
2019-04-21T13:37:17.690Z,3.40
2019-04-21T13:40:34.110Z,3.50
2019-04-21T13:42:50.137Z,3.40
2019-04-21T13:45:16.394Z,2.77
2019-04-21T13:47:46.251Z,3.43
2019-04-21T13:50:15.376Z,3.27
2019-04-21T13:52:44.901Z,3.27
2019-04-21T13:55:14.026Z,2.90
2019-04-21T13:57:44.366Z,2.80
2019-04-21T14:00:13.500Z,3.27
2019-04-21T14:02:42.694Z,3.43
2019-04-21T14:05:13.774Z,2.93
2019-04-21T14:07:42.187Z,2.97
2019-04-21T14:10:13.758Z,2.87
2019-04-21T14:12:42.512Z,2.40
2019-04-21T14:15:12.503Z,2.63
2019-04-21T14:17:42.551Z,3.07
2019-04-21T14:20:13.123Z,3.03
2019-04-21T14:22:42.289Z,3.23
2019-04-21T14:25:12.129Z,3.03
2019-04-21T14:27:41.828Z,2.90
2019-04-21T14:30:12.245Z,2.37
2019-04-21T14:32:42.073Z,2.90
2019-04-21T14:35:12.511Z,2.77
2019-04-21T14:37:42.549Z,2.70
2019-04-21T14:40:16.409Z,2.80
2019-04-21T14:42:42.339Z,2.57
2019-04-21T14:45:20.875Z,2.50
2019-04-21T14:48:00.855Z,2.50
2019-04-21T14:50:58.201Z,2.43
2019-04-21T14:53:29.693Z,2.20
2019-04-21T14:55:59.537Z,2.67
2019-04-21T14:58:28.834Z,2.27
2019-04-21T15:01:02.446Z,2.07
2019-04-21T15:03:32.053Z,2.27
2019-04-21T15:06:01.219Z,2.27
2019-04-21T15:08:31.283Z,2.50
2019-04-21T15:11:01.092Z,3.07
2019-04-21T15:13:30.409Z,2.70
2019-04-21T15:16:00.612Z,2.57
2019-04-21T15:18:30.561Z,2.33
2019-04-21T15:20:59.639Z,2.43
2019-04-21T15:23:30.059Z,2.80
2019-04-21T15:25:59.980Z,2.70
2019-04-21T15:28:31.966Z,2.70
2019-04-21T15:31:00.638Z,2.50
2019-04-21T15:33:30.634Z,2.50
2019-04-21T15:36:00.812Z,2.90
2019-04-21T15:38:30.118Z,2.73
2019-04-21T15:41:03.795Z,2.77
2019-04-21T15:43:30.602Z,2.33
2019-04-21T15:46:00.606Z,2.47
2019-04-21T15:48:30.803Z,2.70
2019-04-21T15:51:04.852Z,2.83
2019-04-21T15:53:31.878Z,2.37
2019-04-21T15:56:06.770Z,2.70
2019-04-21T15:58:48.440Z,2.70
2019-04-21T16:01:25.761Z,2.70
2019-04-21T16:03:58.300Z,2.87
2019-04-21T16:06:25.645Z,2.97
2019-04-21T16:08:57.474Z,2.30
2019-04-21T16:11:25.957Z,2.47
2019-04-21T16:13:55.504Z,2.50
2019-04-21T16:16:27.318Z,2.60
2019-04-21T16:18:56.283Z,2.80
2019-04-21T16:21:26.224Z,2.70
2019-04-21T16:23:56.338Z,2.83
2019-04-21T16:26:26.752Z,3.03
2019-04-21T16:28:57.271Z,2.83
2019-04-21T16:31:26.265Z,2.73
2019-04-21T16:33:54.899Z,3.00
2019-04-21T16:36:25.374Z,2.60
2019-04-21T16:38:55.619Z,2.73
2019-04-21T16:41:24.543Z,2.37
2019-04-21T16:43:53.265Z,2.60
2019-04-21T16:46:23.149Z,2.63
2019-04-21T16:48:53.695Z,2.43
2019-04-21T16:51:22.611Z,2.33
2019-04-21T16:53:58.078Z,3.00
2019-04-21T16:56:37.471Z,2.80
2019-04-21T16:59:20.867Z,2.90
2019-04-21T17:01:49.887Z,2.77
2019-04-21T17:04:20.270Z,3.10
2019-04-21T17:06:49.617Z,3.13
2019-04-21T17:09:18.875Z,2.70
2019-04-21T17:11:49.187Z,3.13
2019-04-21T17:14:35.570Z,2.87
2019-04-21T17:17:14.616Z,2.40
2019-04-21T17:19:27.081Z,3.47
2019-04-21T17:21:49.875Z,3.60
2019-04-21T17:24:20.151Z,2.80
2019-04-21T17:26:49.661Z,2.87
2019-04-21T17:29:20.752Z,2.40
2019-04-21T17:31:49.877Z,2.90
2019-04-21T17:34:23.047Z,2.50
2019-04-21T17:36:50.958Z,2.73
2019-04-21T17:39:20.816Z,3.00
2019-04-21T17:42:05.537Z,3.13
2019-04-21T17:44:21.334Z,2.97
2019-04-21T17:46:57.563Z,2.87
2019-04-21T17:49:21.235Z,4.07
2019-04-21T17:52:11.394Z,3.47
2019-04-21T17:54:47.385Z,2.77
2019-04-21T17:57:31.583Z,2.73
2019-04-21T18:00:04.127Z,3.17
2019-04-21T18:02:38.498Z,2.73
2019-04-21T18:05:08.538Z,2.77
2019-04-21T18:07:34.925Z,2.63
2019-04-21T18:10:19.285Z,2.73
2019-04-21T18:12:34.865Z,3.10
2019-04-21T18:14:59.217Z,3.83
2019-04-21T18:17:18.710Z,3.07
2019-04-21T18:19:51.277Z,2.80
2019-04-21T18:22:45.243Z,2.83
2019-04-21T18:25:29.605Z,3.20
2019-04-21T18:27:44.925Z,3.07
2019-04-21T18:30:31.396Z,3.20
2019-04-21T18:33:03.870Z,3.13
2019-04-21T18:35:43.043Z,3.20
2019-04-21T18:38:18.460Z,2.60
2019-04-21T18:40:45.933Z,3.50
2019-04-21T18:43:50.085Z,2.97
2019-04-21T18:46:22.871Z,2.87
2019-04-21T18:48:44.727Z,2.97
2019-04-21T18:51:45.154Z,2.90
2019-04-21T18:54:31.358Z,2.83
2019-04-21T18:56:52.670Z,3.13
2019-04-21T18:59:12.227Z,2.90
2019-04-21T19:01:51.451Z,2.40
2019-04-21T19:04:19.741Z,2.77
2019-04-21T19:06:59.460Z,3.07
2019-04-21T19:09:35.927Z,3.47
2019-04-21T19:11:59.419Z,3.10
2019-04-21T19:14:36.126Z,3.00
2019-04-21T19:17:30.422Z,3.10
2019-04-21T19:19:56.352Z,3.27
2019-04-21T19:22:20.124Z,3.57
2019-04-21T19:24:41.193Z,2.90
2019-04-21T19:27:22.767Z,2.90
2019-04-21T19:29:42.600Z,2.73
2019-04-21T19:32:12.017Z,2.73
2019-04-21T19:34:26.757Z,3.10
2019-04-21T19:37:00.056Z,2.50
2019-04-21T19:39:39.252Z,2.40
2019-04-21T19:42:03.011Z,3.00
2019-04-21T19:44:43.360Z,2.13
2019-04-21T19:47:17.245Z,2.27
2019-04-21T19:49:45.478Z,2.77
2019-04-21T19:52:03.623Z,2.63
2019-04-21T19:54:33.979Z,2.60
2019-04-21T19:56:57.050Z,2.47
2019-04-21T19:59:34.509Z,2.57
2019-04-21T20:01:56.283Z,2.80
2019-04-21T20:04:33.567Z,2.60
2019-04-21T20:07:02.898Z,3.10
2019-04-21T20:09:39.565Z,3.20
2019-04-21T20:12:09.510Z,2.73
2019-04-21T20:15:04.828Z,2.50
2019-04-21T20:17:11.427Z,2.20
2019-04-21T20:19:29.986Z,2.33
2019-04-21T20:21:59.067Z,3.10
2019-04-21T20:24:28.834Z,3.00
2019-04-21T20:27:06.915Z,2.87
2019-04-21T20:29:49.846Z,3.73
2019-04-21T20:32:24.759Z,3.10
2019-04-21T20:34:56.298Z,3.27
2019-04-21T20:37:21.183Z,3.30
2019-04-21T20:39:45.621Z,2.63
2019-04-21T20:42:19.368Z,2.57
2019-04-21T20:44:54.595Z,2.97
2019-04-21T20:47:11.361Z,3.10
2019-04-21T20:49:41.522Z,2.93
2019-04-21T20:52:22.712Z,2.60
2019-04-21T20:54:48.265Z,2.80
2019-04-21T20:57:18.059Z,3.17
2019-04-21T20:59:44.440Z,3.07
2019-04-21T21:02:20.061Z,3.13
2019-04-21T21:04:43.424Z,3.10
2019-04-21T21:07:36.475Z,2.97
2019-04-21T21:09:55.570Z,2.73
2019-04-21T21:12:33.637Z,3.10
2019-04-21T21:14:53.073Z,2.73
2019-04-21T21:17:44.240Z,3.33
2019-04-21T21:19:56.925Z,3.17
2019-04-21T21:22:16.622Z,3.27
2019-04-21T21:24:50.507Z,3.43
2019-04-21T21:27:25.262Z,2.80
2019-04-21T21:29:56.605Z,3.37
2019-04-21T21:32:27.530Z,3.00
2019-04-21T21:34:59.730Z,2.70
2019-04-21T21:37:35.124Z,3.00
2019-04-21T21:40:16.141Z,2.40
2019-04-21T21:42:11.842Z,2.83
2019-04-21T21:44:49.495Z,2.23
2019-04-21T21:47:24.110Z,2.20
2019-04-21T21:49:55.427Z,2.33
2019-04-21T21:52:30.406Z,2.40
2019-04-21T21:54:43.589Z,2.37
2019-04-21T21:57:12.697Z,2.20
2019-04-21T21:59:42.195Z,2.33
2019-04-21T22:02:17.176Z,2.73
2019-04-21T22:04:51.083Z,2.60
2019-04-21T22:07:16.080Z,2.20
2019-04-21T22:09:44.233Z,2.20
2019-04-21T22:12:14.208Z,2.10
2019-04-21T22:14:46.904Z,2.20
2019-04-21T22:17:29.495Z,2.00
2019-04-21T22:20:14.237Z,2.50
2019-04-21T22:22:28.553Z,3.47
2019-04-21T22:24:55.692Z,1.93
2019-04-21T22:27:17.023Z,2.20
2019-04-21T22:29:51.013Z,2.90
2019-04-21T22:32:22.902Z,2.20
2019-04-21T22:34:54.042Z,2.70
2019-04-21T22:37:29.979Z,1.97
2019-04-21T22:40:03.608Z,2.07
2019-04-21T22:42:26.681Z,1.80
2019-04-21T22:44:50.295Z,2.00
2019-04-21T22:47:25.101Z,2.07
2019-04-21T22:49:50.627Z,2.47
2019-04-21T22:52:22.511Z,2.43
2019-04-21T22:54:51.021Z,2.00
2019-04-21T22:57:24.794Z,1.93
2019-04-21T22:59:54.970Z,2.00
2019-04-21T23:02:26.484Z,2.33
2019-04-21T23:04:56.169Z,2.20
2019-04-21T23:07:24.299Z,2.20
2019-04-21T23:09:53.465Z,2.30
2019-04-21T23:12:28.216Z,2.33
2019-04-21T23:15:03.429Z,2.40
2019-04-21T23:17:39.954Z,2.40
2019-04-21T23:20:17.855Z,1.80
2019-04-21T23:22:55.009Z,2.33
2019-04-21T23:25:13.652Z,2.43
2019-04-21T23:27:46.905Z,2.03
2019-04-21T23:30:20.320Z,2.00
2019-04-21T23:32:36.274Z,2.07
2019-04-21T23:35:01.694Z,2.00
2019-04-21T23:37:32.753Z,2.27
2019-04-21T23:40:01.122Z,1.90
2019-04-21T23:42:33.323Z,2.07
2019-04-21T23:45:01.336Z,2.43
2019-04-21T23:47:44.249Z,3.00
2019-04-21T23:50:07.397Z,2.10
2019-04-21T23:52:31.823Z,2.20
2019-04-21T23:55:01.075Z,2.17
2019-04-21T23:57:35.941Z,2.50
